Charter Quote
Worldwide +1-877-727-2538 Call
Select Language Lang
SAFETY RELIABILITY EXPERIENCE

Private Jet Charter Services - Jiangbei (ZUCK)

Paramount Business Jets offers private jet charter flights and luxury airliner charters to and from Jiangbei.

AIRPORT INFORMATION
ICAOZUCK
LOCATIONChongqing, China
FACILITY TYPEAIRPORT

At Paramount Business Jets you can hire chartered private jets to and from Jiangbei with as little as 4 hours of notice. All flights booked via Paramount Business Jets are operated by certified direct air carriers that meet and exceed the FAA part 135 and 121 protocol or a foreign equivalent safety authority. Furthermore, Paramount Business Jets subscribes to ARGUS for their third party safety checks of operators, aircraft, and crews prior each and every flight to and from Jiangbei and worldwide.

  • Quote a trip using Jiangbei or call us 24/7 - 365 days a year at +1-877-727-2538.
Questions? Call +1-877-727-2538

METAR Weather Data at Jiangbei, ZUCK

STATIONZUCK
OBSERVEDTue Jul 16, 04:00 UTC
NOWTue Jul 16, 04:41 UTC
AGE41 min ago
WINDWSW at 4 mph
VISIBILITY8 miles
CONDITIONSmist
CLOUDSscattered clouds
TEMP77°F (25°C)
DEWPT75°F (24°C)
HUMIDITY94%
BAROMETER1003 hPa (29.62 in Hg)
METARZUCK 160400Z 24002MPS 200V280 5000 BR FEW006 SCT011 25/24 Q1003 NOSIG

Call us on +1-877-727-2538 (24 Hours) to Hire a Private Jet or Get a Quick Quote.

Find Airports Near any Location

Processing
...